sensor_id;sensor_type;location;lat;lon;timestamp;temperature;humidity
13976;DHT22;7062;49.792;9.946;2023-02-14T00:00:56;3.90;99.90
13976;DHT22;7062;49.792;9.946;2023-02-14T00:03:21;3.80;99.90
13976;DHT22;7062;49.792;9.946;2023-02-14T00:05:47;3.90;99.90
13976;DHT22;7062;49.792;9.946;2023-02-14T00:08:14;3.90;99.90
13976;DHT22;7062;49.792;9.946;2023-02-14T00:10:40;3.90;99.90
13976;DHT22;7062;49.792;9.946;2023-02-14T00:13:06;4.00;99.90
13976;DHT22;7062;49.792;9.946;2023-02-14T00:15:31;4.10;99.90
13976;DHT22;7062;49.792;9.946;2023-02-14T00:17:57;4.00;99.90
13976;DHT22;7062;49.792;9.946;2023-02-14T00:20:27;3.90;99.90
13976;DHT22;7062;49.792;9.946;2023-02-14T00:22:53;3.80;99.90
13976;DHT22;7062;49.792;9.946;2023-02-14T00:25:18;3.70;99.90
13976;DHT22;7062;49.792;9.946;2023-02-14T00:27:45;3.70;99.90
13976;DHT22;7062;49.792;9.946;2023-02-14T00:30:11;3.70;99.90
13976;DHT22;7062;49.792;9.946;2023-02-14T00:32:38;3.80;99.90
13976;DHT22;7062;49.792;9.946;2023-02-14T00:35:05;3.80;99.90
13976;DHT22;7062;49.792;9.946;2023-02-14T00:37:31;3.90;99.90
13976;DHT22;7062;49.792;9.946;2023-02-14T00:39:56;3.80;99.90
13976;DHT22;7062;49.792;9.946;2023-02-14T00:42:22;3.90;99.90
13976;DHT22;7062;49.792;9.946;2023-02-14T00:44:48;3.90;99.90
13976;DHT22;7062;49.792;9.946;2023-02-14T00:47:13;3.90;99.90
13976;DHT22;7062;49.792;9.946;2023-02-14T00:49:39;3.90;99.90
13976;DHT22;7062;49.792;9.946;2023-02-14T00:52:05;3.90;99.90
13976;DHT22;7062;49.792;9.946;2023-02-14T00:54:30;3.70;99.90
13976;DHT22;7062;49.792;9.946;2023-02-14T00:56:56;3.70;99.90
13976;DHT22;7062;49.792;9.946;2023-02-14T00:59:22;3.70;99.90
13976;DHT22;7062;49.792;9.946;2023-02-14T01:01:47;3.70;99.90
13976;DHT22;7062;49.792;9.946;2023-02-14T01:04:13;3.70;99.90
13976;DHT22;7062;49.792;9.946;2023-02-14T01:06:38;3.70;99.90
13976;DHT22;7062;49.792;9.946;2023-02-14T01:09:04;3.80;99.90
13976;DHT22;7062;49.792;9.946;2023-02-14T01:11:30;3.90;99.90
13976;DHT22;7062;49.792;9.946;2023-02-14T01:13:56;3.90;99.90
13976;DHT22;7062;49.792;9.946;2023-02-14T01:16:24;3.90;99.90
13976;DHT22;7062;49.792;9.946;2023-02-14T01:18:50;3.90;99.90
13976;DHT22;7062;49.792;9.946;2023-02-14T01:21:22;3.80;99.90
13976;DHT22;7062;49.792;9.946;2023-02-14T01:23:50;3.70;99.90
13976;DHT22;7062;49.792;9.946;2023-02-14T01:26:16;3.70;99.90
13976;DHT22;7062;49.792;9.946;2023-02-14T01:28:44;3.80;99.90
13976;DHT22;7062;49.792;9.946;2023-02-14T01:31:16;3.90;99.90
13976;DHT22;7062;49.792;9.946;2023-02-14T01:33:43;3.70;99.90
13976;DHT22;7062;49.792;9.946;2023-02-14T01:36:21;3.70;99.90
13976;DHT22;7062;49.792;9.946;2023-02-14T01:38:51;3.60;99.90
13976;DHT22;7062;49.792;9.946;2023-02-14T01:41:17;3.60;99.90
13976;DHT22;7062;49.792;9.946;2023-02-14T01:43:49;3.60;99.90
13976;DHT22;7062;49.792;9.946;2023-02-14T01:46:15;3.60;99.90
13976;DHT22;7062;49.792;9.946;2023-02-14T01:48:41;3.60;99.90
13976;DHT22;7062;49.792;9.946;2023-02-14T01:51:07;3.70;99.90
13976;DHT22;7062;49.792;9.946;2023-02-14T01:53:33;3.70;99.90
13976;DHT22;7062;49.792;9.946;2023-02-14T01:56:03;3.80;99.90
13976;DHT22;7062;49.792;9.946;2023-02-14T01:58:31;3.80;99.90
13976;DHT22;7062;49.792;9.946;2023-02-14T02:01:01;3.90;99.90
13976;DHT22;7062;49.792;9.946;2023-02-14T02:03:35;3.90;99.90
13976;DHT22;7062;49.792;9.946;2023-02-14T02:06:15;3.80;99.90
13976;DHT22;7062;49.792;9.946;2023-02-14T02:11:20;3.90;99.90
13976;DHT22;7062;49.792;9.946;2023-02-14T02:13:45;4.00;99.90
13976;DHT22;7062;49.792;9.946;2023-02-14T02:18:44;4.30;99.90
13976;DHT22;7062;49.792;9.946;2023-02-14T02:21:39;4.20;99.90
13976;DHT22;7062;49.792;9.946;2023-02-14T02:29:54;4.10;99.90
13976;DHT22;7062;49.792;9.946;2023-02-14T02:38:26;4.00;99.90
13976;DHT22;7062;49.792;9.946;2023-02-14T02:41:05;3.90;99.90
13976;DHT22;7062;49.792;9.946;2023-02-14T02:46:39;3.60;99.90
13976;DHT22;7062;49.792;9.946;2023-02-14T02:52:39;3.60;99.90
13976;DHT22;7062;49.792;9.946;2023-02-14T02:58:30;3.70;99.90
13976;DHT22;7062;49.792;9.946;2023-02-14T03:00:58;3.70;99.90
13976;DHT22;7062;49.792;9.946;2023-02-14T03:03:27;3.80;99.90
13976;DHT22;7062;49.792;9.946;2023-02-14T03:06:13;3.90;99.90
13976;DHT22;7062;49.792;9.946;2023-02-14T03:08:38;3.90;99.90
13976;DHT22;7062;49.792;9.946;2023-02-14T03:11:04;4.00;99.90
13976;DHT22;7062;49.792;9.946;2023-02-14T03:16:31;4.00;99.90
13976;DHT22;7062;49.792;9.946;2023-02-14T03:27:34;4.10;99.90
13976;DHT22;7062;49.792;9.946;2023-02-14T03:32:55;4.20;99.90
13976;DHT22;7062;49.792;9.946;2023-02-14T03:35:24;4.20;99.90
13976;DHT22;7062;49.792;9.946;2023-02-14T03:40:37;4.20;99.90
13976;DHT22;7062;49.792;9.946;2023-02-14T03:43:17;4.10;99.90
13976;DHT22;7062;49.792;9.946;2023-02-14T03:45:55;4.10;99.90
13976;DHT22;7062;49.792;9.946;2023-02-14T03:48:23;4.10;99.90
13976;DHT22;7062;49.792;9.946;2023-02-14T03:50:52;4.20;99.90
13976;DHT22;7062;49.792;9.946;2023-02-14T03:53:22;4.30;99.90
13976;DHT22;7062;49.792;9.946;2023-02-14T03:56:13;4.30;99.90
13976;DHT22;7062;49.792;9.946;2023-02-14T03:58:47;4.30;99.90
13976;DHT22;7062;49.792;9.946;2023-02-14T04:01:20;4.40;99.90
13976;DHT22;7062;49.792;9.946;2023-02-14T04:03:48;4.40;99.90
13976;DHT22;7062;49.792;9.946;2023-02-14T04:06:17;4.40;99.90
13976;DHT22;7062;49.792;9.946;2023-02-14T04:08:43;4.40;99.90
13976;DHT22;7062;49.792;9.946;2023-02-14T04:11:09;4.50;99.90
13976;DHT22;7062;49.792;9.946;2023-02-14T04:13:36;4.40;99.90
13976;DHT22;7062;49.792;9.946;2023-02-14T04:16:02;4.50;99.90
13976;DHT22;7062;49.792;9.946;2023-02-14T04:18:28;4.40;99.90
13976;DHT22;7062;49.792;9.946;2023-02-14T04:21:12;4.50;99.90
13976;DHT22;7062;49.792;9.946;2023-02-14T04:23:38;4.50;99.90
13976;DHT22;7062;49.792;9.946;2023-02-14T04:26:04;4.50;99.90
13976;DHT22;7062;49.792;9.946;2023-02-14T04:28:30;4.40;99.90
13976;DHT22;7062;49.792;9.946;2023-02-14T04:30:56;4.40;99.90
13976;DHT22;7062;49.792;9.946;2023-02-14T04:33:24;4.40;99.90
13976;DHT22;7062;49.792;9.946;2023-02-14T04:35:50;4.40;99.90
13976;DHT22;7062;49.792;9.946;2023-02-14T04:38:16;4.30;99.90
13976;DHT22;7062;49.792;9.946;2023-02-14T04:40:41;4.30;99.90
13976;DHT22;7062;49.792;9.946;2023-02-14T04:43:07;4.30;99.90
13976;DHT22;7062;49.792;9.946;2023-02-14T04:45:33;4.40;99.90
13976;DHT22;7062;49.792;9.946;2023-02-14T04:47:59;4.30;99.90
13976;DHT22;7062;49.792;9.946;2023-02-14T04:50:24;4.40;99.90
13976;DHT22;7062;49.792;9.946;2023-02-14T04:52:51;4.50;99.90
13976;DHT22;7062;49.792;9.946;2023-02-14T04:55:17;4.50;99.90
13976;DHT22;7062;49.792;9.946;2023-02-14T04:57:43;4.60;99.90
13976;DHT22;7062;49.792;9.946;2023-02-14T05:00:09;4.70;99.90
13976;DHT22;7062;49.792;9.946;2023-02-14T05:02:35;4.60;99.90
13976;DHT22;7062;49.792;9.946;2023-02-14T05:05:01;4.70;99.90
13976;DHT22;7062;49.792;9.946;2023-02-14T05:07:26;4.60;99.90
13976;DHT22;7062;49.792;9.946;2023-02-14T05:09:52;4.60;99.90
13976;DHT22;7062;49.792;9.946;2023-02-14T05:12:18;4.60;99.90
13976;DHT22;7062;49.792;9.946;2023-02-14T05:14:44;4.50;99.90
13976;DHT22;7062;49.792;9.946;2023-02-14T05:17:10;4.40;99.90
13976;DHT22;7062;49.792;9.946;2023-02-14T05:19:35;4.40;99.90
13976;DHT22;7062;49.792;9.946;2023-02-14T05:22:01;4.40;99.90
13976;DHT22;7062;49.792;9.946;2023-02-14T05:24:27;4.30;99.90
13976;DHT22;7062;49.792;9.946;2023-02-14T05:26:52;4.30;99.90
13976;DHT22;7062;49.792;9.946;2023-02-14T05:29:18;4.30;99.90
13976;DHT22;7062;49.792;9.946;2023-02-14T05:31:43;4.20;99.90
13976;DHT22;7062;49.792;9.946;2023-02-14T05:34:10;4.10;99.90
13976;DHT22;7062;49.792;9.946;2023-02-14T05:36:35;3.90;99.90
13976;DHT22;7062;49.792;9.946;2023-02-14T05:39:01;3.70;99.90
13976;DHT22;7062;49.792;9.946;2023-02-14T05:41:27;3.60;99.90
13976;DHT22;7062;49.792;9.946;2023-02-14T05:43:53;3.70;99.90
13976;DHT22;7062;49.792;9.946;2023-02-14T05:46:18;3.60;99.90
13976;DHT22;7062;49.792;9.946;2023-02-14T05:48:44;3.50;99.90
13976;DHT22;7062;49.792;9.946;2023-02-14T05:51:11;3.50;99.90
13976;DHT22;7062;49.792;9.946;2023-02-14T05:53:37;3.50;99.90
13976;DHT22;7062;49.792;9.946;2023-02-14T05:56:03;3.50;99.90
13976;DHT22;7062;49.792;9.946;2023-02-14T05:58:29;3.50;99.90
13976;DHT22;7062;49.792;9.946;2023-02-14T06:00:58;3.50;99.90
13976;DHT22;7062;49.792;9.946;2023-02-14T06:03:24;3.60;99.90
13976;DHT22;7062;49.792;9.946;2023-02-14T06:05:50;3.70;99.90
13976;DHT22;7062;49.792;9.946;2023-02-14T06:08:15;3.60;99.90
13976;DHT22;7062;49.792;9.946;2023-02-14T06:10:41;3.60;99.90
13976;DHT22;7062;49.792;9.946;2023-02-14T06:13:07;3.60;99.90
13976;DHT22;7062;49.792;9.946;2023-02-14T06:15:36;3.70;99.90
13976;DHT22;7062;49.792;9.946;2023-02-14T06:18:03;3.80;99.90
13976;DHT22;7062;49.792;9.946;2023-02-14T06:20:29;4.00;99.90
13976;DHT22;7062;49.792;9.946;2023-02-14T06:22:55;3.90;99.90
13976;DHT22;7062;49.792;9.946;2023-02-14T06:25:22;3.90;99.90
13976;DHT22;7062;49.792;9.946;2023-02-14T06:27:48;4.00;99.90
13976;DHT22;7062;49.792;9.946;2023-02-14T06:30:14;4.00;99.90
13976;DHT22;7062;49.792;9.946;2023-02-14T06:32:40;4.00;99.90
13976;DHT22;7062;49.792;9.946;2023-02-14T06:35:06;4.00;99.90
13976;DHT22;7062;49.792;9.946;2023-02-14T06:37:33;3.90;99.90
13976;DHT22;7062;49.792;9.946;2023-02-14T06:39:58;3.90;99.90
13976;DHT22;7062;49.792;9.946;2023-02-14T06:42:24;3.80;99.90
13976;DHT22;7062;49.792;9.946;2023-02-14T06:44:50;3.80;99.90
13976;DHT22;7062;49.792;9.946;2023-02-14T06:47:16;3.90;99.90
13976;DHT22;7062;49.792;9.946;2023-02-14T06:49:42;3.90;99.90
13976;DHT22;7062;49.792;9.946;2023-02-14T06:52:08;4.00;99.90
13976;DHT22;7062;49.792;9.946;2023-02-14T06:54:33;4.00;99.90
13976;DHT22;7062;49.792;9.946;2023-02-14T06:56:59;4.00;99.90
13976;DHT22;7062;49.792;9.946;2023-02-14T06:59:25;3.90;99.90
13976;DHT22;7062;49.792;9.946;2023-02-14T07:01:50;3.80;99.90
13976;DHT22;7062;49.792;9.946;2023-02-14T07:04:16;3.80;99.90
13976;DHT22;7062;49.792;9.946;2023-02-14T07:06:44;3.90;99.90
13976;DHT22;7062;49.792;9.946;2023-02-14T07:09:10;3.90;99.90
13976;DHT22;7062;49.792;9.946;2023-02-14T07:11:36;3.90;99.90
13976;DHT22;7062;49.792;9.946;2023-02-14T07:14:01;3.80;99.90
13976;DHT22;7062;49.792;9.946;2023-02-14T07:16:27;3.50;99.90
13976;DHT22;7062;49.792;9.946;2023-02-14T07:18:53;3.60;99.90
13976;DHT22;7062;49.792;9.946;2023-02-14T07:21:18;3.70;99.90
13976;DHT22;7062;49.792;9.946;2023-02-14T07:23:44;3.80;99.90
13976;DHT22;7062;49.792;9.946;2023-02-14T07:26:12;3.90;99.90
13976;DHT22;7062;49.792;9.946;2023-02-14T07:28:46;4.00;99.90
13976;DHT22;7062;49.792;9.946;2023-02-14T07:31:14;4.10;99.90
13976;DHT22;7062;49.792;9.946;2023-02-14T07:33:39;4.10;99.90
13976;DHT22;7062;49.792;9.946;2023-02-14T07:36:06;4.10;99.90
13976;DHT22;7062;49.792;9.946;2023-02-14T07:38:33;4.10;99.90
13976;DHT22;7062;49.792;9.946;2023-02-14T07:40:59;4.20;99.90
13976;DHT22;7062;49.792;9.946;2023-02-14T07:43:25;4.20;99.90
13976;DHT22;7062;49.792;9.946;2023-02-14T07:45:51;4.20;99.90
13976;DHT22;7062;49.792;9.946;2023-02-14T07:48:17;4.20;99.90
13976;DHT22;7062;49.792;9.946;2023-02-14T07:50:43;4.20;99.90
13976;DHT22;7062;49.792;9.946;2023-02-14T07:53:08;4.00;99.90
13976;DHT22;7062;49.792;9.946;2023-02-14T07:55:34;3.90;99.90
13976;DHT22;7062;49.792;9.946;2023-02-14T07:58:00;3.80;99.90
13976;DHT22;7062;49.792;9.946;2023-02-14T08:00:26;3.80;99.90
13976;DHT22;7062;49.792;9.946;2023-02-14T08:02:52;3.70;99.90
13976;DHT22;7062;49.792;9.946;2023-02-14T08:05:17;3.70;99.90
13976;DHT22;7062;49.792;9.946;2023-02-14T08:07:43;3.80;99.90
13976;DHT22;7062;49.792;9.946;2023-02-14T08:10:10;3.80;99.90
13976;DHT22;7062;49.792;9.946;2023-02-14T08:12:36;3.90;99.90
13976;DHT22;7062;49.792;9.946;2023-02-14T08:15:20;3.90;99.90
13976;DHT22;7062;49.792;9.946;2023-02-14T08:18:05;3.70;99.90
13976;DHT22;7062;49.792;9.946;2023-02-14T08:20:30;3.70;99.90
13976;DHT22;7062;49.792;9.946;2023-02-14T08:22:56;3.70;99.90
13976;DHT22;7062;49.792;9.946;2023-02-14T08:25:22;3.80;99.90
13976;DHT22;7062;49.792;9.946;2023-02-14T08:27:48;3.80;99.90
13976;DHT22;7062;49.792;9.946;2023-02-14T08:30:14;3.70;99.90
13976;DHT22;7062;49.792;9.946;2023-02-14T08:32:40;3.50;99.90
13976;DHT22;7062;49.792;9.946;2023-02-14T08:35:06;3.60;99.90
13976;DHT22;7062;49.792;9.946;2023-02-14T08:37:31;3.70;99.90
13976;DHT22;7062;49.792;9.946;2023-02-14T08:39:57;3.90;99.90
13976;DHT22;7062;49.792;9.946;2023-02-14T08:42:23;3.90;99.90
13976;DHT22;7062;49.792;9.946;2023-02-14T08:44:48;3.90;99.90
13976;DHT22;7062;49.792;9.946;2023-02-14T08:47:14;3.80;99.90
13976;DHT22;7062;49.792;9.946;2023-02-14T08:49:39;3.80;99.90
13976;DHT22;7062;49.792;9.946;2023-02-14T08:52:05;3.90;99.90
13976;DHT22;7062;49.792;9.946;2023-02-14T08:54:31;4.00;99.90
13976;DHT22;7062;49.792;9.946;2023-02-14T08:56:56;4.00;99.90
13976;DHT22;7062;49.792;9.946;2023-02-14T08:59:22;4.00;99.90
13976;DHT22;7062;49.792;9.946;2023-02-14T09:01:48;3.90;99.90
13976;DHT22;7062;49.792;9.946;2023-02-14T09:04:13;3.90;99.90
13976;DHT22;7062;49.792;9.946;2023-02-14T09:06:39;3.80;99.90
13976;DHT22;7062;49.792;9.946;2023-02-14T09:09:06;3.70;99.90
13976;DHT22;7062;49.792;9.946;2023-02-14T09:11:32;3.60;99.90
13976;DHT22;7062;49.792;9.946;2023-02-14T09:13:58;3.60;99.90
13976;DHT22;7062;49.792;9.946;2023-02-14T09:16:24;3.70;99.90
13976;DHT22;7062;49.792;9.946;2023-02-14T09:18:51;3.70;99.90
13976;DHT22;7062;49.792;9.946;2023-02-14T09:21:22;3.70;99.90
13976;DHT22;7062;49.792;9.946;2023-02-14T09:23:48;3.90;99.90
13976;DHT22;7062;49.792;9.946;2023-02-14T09:26:15;3.90;99.90
13976;DHT22;7062;49.792;9.946;2023-02-14T09:28:41;3.80;99.90
13976;DHT22;7062;49.792;9.946;2023-02-14T09:31:16;3.90;99.90
13976;DHT22;7062;49.792;9.946;2023-02-14T09:33:42;4.00;99.90
13976;DHT22;7062;49.792;9.946;2023-02-14T09:36:08;4.20;99.90
13976;DHT22;7062;49.792;9.946;2023-02-14T09:38:43;4.30;99.90
13976;DHT22;7062;49.792;9.946;2023-02-14T09:44:09;4.50;99.90
13976;DHT22;7062;49.792;9.946;2023-02-14T09:46:44;4.60;99.90
13976;DHT22;7062;49.792;9.946;2023-02-14T09:49:13;4.50;99.90
13976;DHT22;7062;49.792;9.946;2023-02-14T09:51:45;4.50;99.90
13976;DHT22;7062;49.792;9.946;2023-02-14T09:54:14;4.50;99.90
13976;DHT22;7062;49.792;9.946;2023-02-14T09:59:47;4.50;99.90
13976;DHT22;7062;49.792;9.946;2023-02-14T10:13:15;4.40;99.90
13976;DHT22;7062;49.792;9.946;2023-02-14T10:15:45;4.60;99.90
13976;DHT22;7062;49.792;9.946;2023-02-14T10:18:25;4.70;99.90
13976;DHT22;7062;49.792;9.946;2023-02-14T10:20:55;4.50;99.90
13976;DHT22;7062;49.792;9.946;2023-02-14T10:25:56;4.50;99.90
13976;DHT22;7062;49.792;9.946;2023-02-14T10:28:30;4.60;99.90
13976;DHT22;7062;49.792;9.946;2023-02-14T10:33:38;4.60;99.90
13976;DHT22;7062;49.792;9.946;2023-02-14T10:36:23;4.70;99.90
13976;DHT22;7062;49.792;9.946;2023-02-14T10:41:55;4.50;99.90
13976;DHT22;7062;49.792;9.946;2023-02-14T10:44:48;4.50;99.90
13976;DHT22;7062;49.792;9.946;2023-02-14T10:54:59;4.80;99.90
13976;DHT22;7062;49.792;9.946;2023-02-14T11:00:20;4.70;99.90
13976;DHT22;7062;49.792;9.946;2023-02-14T11:02:50;4.40;99.90
13976;DHT22;7062;49.792;9.946;2023-02-14T11:05:38;4.40;99.90
13976;DHT22;7062;49.792;9.946;2023-02-14T11:10:42;4.40;99.90
13976;DHT22;7062;49.792;9.946;2023-02-14T11:15:52;4.50;99.90
13976;DHT22;7062;49.792;9.946;2023-02-14T11:18:24;4.60;99.90
13976;DHT22;7062;49.792;9.946;2023-02-14T11:23:40;4.60;99.90
13976;DHT22;7062;49.792;9.946;2023-02-14T11:28:59;4.50;99.90
13976;DHT22;7062;49.792;9.946;2023-02-14T11:33:55;4.20;99.90
13976;DHT22;7062;49.792;9.946;2023-02-14T11:36:22;4.30;99.90
13976;DHT22;7062;49.792;9.946;2023-02-14T11:39:40;4.20;99.90
13976;DHT22;7062;49.792;9.946;2023-02-14T11:41:49;4.40;99.90
13976;DHT22;7062;49.792;9.946;2023-02-14T11:44:21;4.30;99.90
13976;DHT22;7062;49.792;9.946;2023-02-14T11:46:51;4.40;99.90
13976;DHT22;7062;49.792;9.946;2023-02-14T11:49:29;4.60;99.90
13976;DHT22;7062;49.792;9.946;2023-02-14T11:52:07;4.70;99.90
13976;DHT22;7062;49.792;9.946;2023-02-14T11:54:35;4.90;99.90
13976;DHT22;7062;49.792;9.946;2023-02-14T11:59:52;5.10;99.90
13976;DHT22;7062;49.792;9.946;2023-02-14T12:02:26;4.90;99.90
13976;DHT22;7062;49.792;9.946;2023-02-14T12:05:02;5.10;99.90
13976;DHT22;7062;49.792;9.946;2023-02-14T12:07:31;5.00;99.90
13976;DHT22;7062;49.792;9.946;2023-02-14T12:20:59;5.40;99.90
13976;DHT22;7062;49.792;9.946;2023-02-14T12:26:35;5.10;99.90
13976;DHT22;7062;49.792;9.946;2023-02-14T12:31:42;4.80;99.90
13976;DHT22;7062;49.792;9.946;2023-02-14T12:34:11;4.80;99.90
13976;DHT22;7062;49.792;9.946;2023-02-14T12:39:27;5.20;99.90
13976;DHT22;7062;49.792;9.946;2023-02-14T12:42:14;5.40;99.90
13976;DHT22;7062;49.792;9.946;2023-02-14T12:47:30;5.80;99.90
13976;DHT22;7062;49.792;9.946;2023-02-14T13:08:56;5.40;99.90
13976;DHT22;7062;49.792;9.946;2023-02-14T13:11:57;5.50;99.90
13976;DHT22;7062;49.792;9.946;2023-02-14T13:17:28;5.80;99.90
13976;DHT22;7062;49.792;9.946;2023-02-14T13:22:59;5.60;99.90
13976;DHT22;7062;49.792;9.946;2023-02-14T13:25:28;5.70;99.90
13976;DHT22;7062;49.792;9.946;2023-02-14T13:28:10;5.80;99.90
13976;DHT22;7062;49.792;9.946;2023-02-14T13:30:37;5.70;99.90
13976;DHT22;7062;49.792;9.946;2023-02-14T13:33:10;5.70;99.90
13976;DHT22;7062;49.792;9.946;2023-02-14T13:35:39;5.80;99.90
13976;DHT22;7062;49.792;9.946;2023-02-14T13:38:10;6.00;99.90
13976;DHT22;7062;49.792;9.946;2023-02-14T13:40:37;6.10;99.90
13976;DHT22;7062;49.792;9.946;2023-02-14T13:43:03;5.80;99.90
13976;DHT22;7062;49.792;9.946;2023-02-14T13:48:18;5.30;99.90
13976;DHT22;7062;49.792;9.946;2023-02-14T13:51:08;5.30;99.90
13976;DHT22;7062;49.792;9.946;2023-02-14T13:53:45;5.50;99.90
13976;DHT22;7062;49.792;9.946;2023-02-14T13:58:49;5.60;99.90
13976;DHT22;7062;49.792;9.946;2023-02-14T14:04:05;5.50;99.90
13976;DHT22;7062;49.792;9.946;2023-02-14T14:15:14;5.20;99.90
13976;DHT22;7062;49.792;9.946;2023-02-14T14:17:43;5.40;99.90
13976;DHT22;7062;49.792;9.946;2023-02-14T14:22:53;5.60;99.90
13976;DHT22;7062;49.792;9.946;2023-02-14T14:27:55;5.50;99.90
13976;DHT22;7062;49.792;9.946;2023-02-14T14:30:25;5.40;99.90
13976;DHT22;7062;49.792;9.946;2023-02-14T14:32:53;5.00;99.90
13976;DHT22;7062;49.792;9.946;2023-02-14T14:35:23;5.10;99.90
13976;DHT22;7062;49.792;9.946;2023-02-14T14:37:50;5.00;99.90
13976;DHT22;7062;49.792;9.946;2023-02-14T14:40:31;4.80;99.90
13976;DHT22;7062;49.792;9.946;2023-02-14T14:46:01;5.20;99.90
13976;DHT22;7062;49.792;9.946;2023-02-14T14:48:57;5.40;99.90
13976;DHT22;7062;49.792;9.946;2023-02-14T14:56:34;5.50;99.90
13976;DHT22;7062;49.792;9.946;2023-02-14T15:01:48;5.30;99.90
13976;DHT22;7062;49.792;9.946;2023-02-14T15:04:18;5.20;99.90
13976;DHT22;7062;49.792;9.946;2023-02-14T15:06:45;5.30;99.90
13976;DHT22;7062;49.792;9.946;2023-02-14T15:09:29;5.20;99.90
13976;DHT22;7062;49.792;9.946;2023-02-14T15:11:58;5.20;99.90
13976;DHT22;7062;49.792;9.946;2023-02-14T15:14:46;5.40;99.90
13976;DHT22;7062;49.792;9.946;2023-02-14T15:17:20;5.40;99.90
13976;DHT22;7062;49.792;9.946;2023-02-14T15:19:51;5.50;99.90
13976;DHT22;7062;49.792;9.946;2023-02-14T15:22:44;5.40;99.90
13976;DHT22;7062;49.792;9.946;2023-02-14T15:25:17;5.60;99.90
13976;DHT22;7062;49.792;9.946;2023-02-14T15:27:43;5.60;99.90
13976;DHT22;7062;49.792;9.946;2023-02-14T15:32:47;5.50;99.90
13976;DHT22;7062;49.792;9.946;2023-02-14T15:35:16;5.50;99.90
13976;DHT22;7062;49.792;9.946;2023-02-14T15:37:43;5.60;99.90
13976;DHT22;7062;49.792;9.946;2023-02-14T15:40:22;5.70;99.90
13976;DHT22;7062;49.792;9.946;2023-02-14T15:42:50;5.60;99.90
13976;DHT22;7062;49.792;9.946;2023-02-14T15:47:55;5.70;99.90
13976;DHT22;7062;49.792;9.946;2023-02-14T15:50:27;5.40;99.90
13976;DHT22;7062;49.792;9.946;2023-02-14T15:53:05;5.30;99.90
13976;DHT22;7062;49.792;9.946;2023-02-14T15:55:32;5.20;99.90
13976;DHT22;7062;49.792;9.946;2023-02-14T15:58:10;5.10;99.90
13976;DHT22;7062;49.792;9.946;2023-02-14T16:00:42;5.10;99.90
13976;DHT22;7062;49.792;9.946;2023-02-14T16:03:12;5.00;99.90
13976;DHT22;7062;49.792;9.946;2023-02-14T16:05:46;5.00;99.90
13976;DHT22;7062;49.792;9.946;2023-02-14T16:08:36;5.10;99.90
13976;DHT22;7062;49.792;9.946;2023-02-14T16:11:06;5.20;99.90
13976;DHT22;7062;49.792;9.946;2023-02-14T16:13:43;5.10;99.90
13976;DHT22;7062;49.792;9.946;2023-02-14T16:16:11;5.20;99.90
13976;DHT22;7062;49.792;9.946;2023-02-14T16:18:52;5.20;99.90
13976;DHT22;7062;49.792;9.946;2023-02-14T16:21:27;5.20;99.90
13976;DHT22;7062;49.792;9.946;2023-02-14T16:26:43;5.10;99.90
13976;DHT22;7062;49.792;9.946;2023-02-14T16:29:14;4.90;99.90
13976;DHT22;7062;49.792;9.946;2023-02-14T16:31:47;5.10;99.90
13976;DHT22;7062;49.792;9.946;2023-02-14T16:34:14;5.20;99.90
13976;DHT22;7062;49.792;9.946;2023-02-14T16:36:40;5.30;99.90
13976;DHT22;7062;49.792;9.946;2023-02-14T16:39:15;5.20;99.90
13976;DHT22;7062;49.792;9.946;2023-02-14T16:41:46;5.00;99.90
13976;DHT22;7062;49.792;9.946;2023-02-14T16:44:17;5.10;99.90
13976;DHT22;7062;49.792;9.946;2023-02-14T16:46:44;5.10;99.90
13976;DHT22;7062;49.792;9.946;2023-02-14T16:49:13;5.00;99.90
13976;DHT22;7062;49.792;9.946;2023-02-14T16:51:44;5.00;99.90
13976;DHT22;7062;49.792;9.946;2023-02-14T16:54:17;5.00;99.90
13976;DHT22;7062;49.792;9.946;2023-02-14T16:56:50;4.90;99.90
13976;DHT22;7062;49.792;9.946;2023-02-14T16:59:16;4.90;99.90
13976;DHT22;7062;49.792;9.946;2023-02-14T17:01:42;4.90;99.90
13976;DHT22;7062;49.792;9.946;2023-02-14T17:04:08;4.90;99.90
13976;DHT22;7062;49.792;9.946;2023-02-14T17:06:37;4.90;99.90
13976;DHT22;7062;49.792;9.946;2023-02-14T17:09:06;4.90;99.90
13976;DHT22;7062;49.792;9.946;2023-02-14T17:11:36;4.90;99.90
13976;DHT22;7062;49.792;9.946;2023-02-14T17:14:03;5.10;99.90
13976;DHT22;7062;49.792;9.946;2023-02-14T17:16:30;5.10;99.90
13976;DHT22;7062;49.792;9.946;2023-02-14T17:18:56;5.20;99.90
13976;DHT22;7062;49.792;9.946;2023-02-14T17:21:23;5.30;99.90
13976;DHT22;7062;49.792;9.946;2023-02-14T17:23:49;5.30;99.90
13976;DHT22;7062;49.792;9.946;2023-02-14T17:26:15;5.40;99.90
13976;DHT22;7062;49.792;9.946;2023-02-14T17:28:43;5.40;99.90
13976;DHT22;7062;49.792;9.946;2023-02-14T17:31:08;5.50;99.90
13976;DHT22;7062;49.792;9.946;2023-02-14T17:33:34;5.50;99.90
13976;DHT22;7062;49.792;9.946;2023-02-14T17:36:18;5.50;99.90
13976;DHT22;7062;49.792;9.946;2023-02-14T17:38:43;5.60;99.90
13976;DHT22;7062;49.792;9.946;2023-02-14T17:41:14;5.60;99.90
13976;DHT22;7062;49.792;9.946;2023-02-14T17:43:41;5.60;99.90
13976;DHT22;7062;49.792;9.946;2023-02-14T17:46:07;5.60;99.90
13976;DHT22;7062;49.792;9.946;2023-02-14T17:48:33;5.40;99.90
13976;DHT22;7062;49.792;9.946;2023-02-14T17:51:07;5.30;99.90
13976;DHT22;7062;49.792;9.946;2023-02-14T17:53:33;5.20;99.90
13976;DHT22;7062;49.792;9.946;2023-02-14T17:56:04;5.20;99.90
13976;DHT22;7062;49.792;9.946;2023-02-14T17:58:30;5.00;99.90
13976;DHT22;7062;49.792;9.946;2023-02-14T18:01:01;4.80;99.90
13976;DHT22;7062;49.792;9.946;2023-02-14T18:03:27;4.80;99.90
13976;DHT22;7062;49.792;9.946;2023-02-14T18:05:56;4.90;99.90
13976;DHT22;7062;49.792;9.946;2023-02-14T18:08:22;4.70;99.90
13976;DHT22;7062;49.792;9.946;2023-02-14T18:10:47;4.80;99.90
13976;DHT22;7062;49.792;9.946;2023-02-14T18:13:13;4.80;99.90
13976;DHT22;7062;49.792;9.946;2023-02-14T18:15:38;4.70;99.90
13976;DHT22;7062;49.792;9.946;2023-02-14T18:18:04;4.60;99.90
13976;DHT22;7062;49.792;9.946;2023-02-14T18:20:30;4.70;99.90
13976;DHT22;7062;49.792;9.946;2023-02-14T18:22:56;4.70;99.90
13976;DHT22;7062;49.792;9.946;2023-02-14T18:25:21;4.80;99.90
13976;DHT22;7062;49.792;9.946;2023-02-14T18:27:49;4.90;99.90
13976;DHT22;7062;49.792;9.946;2023-02-14T18:30:15;5.00;99.90
13976;DHT22;7062;49.792;9.946;2023-02-14T18:32:41;5.00;99.90
13976;DHT22;7062;49.792;9.946;2023-02-14T18:35:07;5.10;99.90
13976;DHT22;7062;49.792;9.946;2023-02-14T18:37:33;5.10;99.90
13976;DHT22;7062;49.792;9.946;2023-02-14T18:39:58;5.10;99.90
13976;DHT22;7062;49.792;9.946;2023-02-14T18:42:24;5.20;99.90
13976;DHT22;7062;49.792;9.946;2023-02-14T18:44:49;5.10;99.90
13976;DHT22;7062;49.792;9.946;2023-02-14T18:47:15;5.00;99.90
13976;DHT22;7062;49.792;9.946;2023-02-14T18:49:41;5.10;99.90
13976;DHT22;7062;49.792;9.946;2023-02-14T18:52:07;5.00;99.90
13976;DHT22;7062;49.792;9.946;2023-02-14T18:54:32;5.00;99.90
13976;DHT22;7062;49.792;9.946;2023-02-14T18:56:58;5.00;99.90
13976;DHT22;7062;49.792;9.946;2023-02-14T18:59:24;5.00;99.90
13976;DHT22;7062;49.792;9.946;2023-02-14T19:01:50;5.00;99.90
13976;DHT22;7062;49.792;9.946;2023-02-14T19:04:16;5.00;99.90
13976;DHT22;7062;49.792;9.946;2023-02-14T19:06:42;5.00;99.90
13976;DHT22;7062;49.792;9.946;2023-02-14T19:09:10;5.00;99.90
13976;DHT22;7062;49.792;9.946;2023-02-14T19:11:37;4.90;99.90
13976;DHT22;7062;49.792;9.946;2023-02-14T19:14:03;4.80;99.90
13976;DHT22;7062;49.792;9.946;2023-02-14T19:16:36;4.90;99.90